Time;durP1;ratioP1;P1;durP2;ratioP2;P2;SDS_P1;SDS_P2;PMS_P1;PMS_P2;Temp;Humidity;BMP_temperature;BMP_pressure;BME280_temperature;BME280_humidity;BME280_pressure;Samples;Min_cycle;Max_cycle;Signal;HPM_P1;HPM_P2
2022/05/04 00:02:19;;;;;;;46.40;21.73;;;;;;;;;;4981038;28;20035;-67
2022/05/04 00:04:45;;;;;;;51.78;22.63;;;;;;;;;;4985748;28;20033;-67
2022/05/04 00:07:11;;;;;;;53.58;21.95;;;;;;;;;;4989590;28;20041;-67
2022/05/04 00:09:37;;;;;;;44.72;21.42;;;;;;;;;;4977295;28;20508;-67
2022/05/04 00:12:04;;;;;;;45.70;21.23;;;;;;;;;;4982908;28;20027;-67
2022/05/04 00:14:30;;;;;;;48.47;22.95;;;;;;;;;;4973910;28;20026;-67
2022/05/04 00:16:56;;;;;;;55.03;23.67;;;;;;;;;;4986276;28;20026;-67
2022/05/04 00:19:22;;;;;;;53.72;24.13;;;;;;;;;;4974333;28;20077;-67
2022/05/04 00:21:48;;;;;;;55.35;24.50;;;;;;;;;;4980232;28;20125;-67
2022/05/04 00:24:19;;;;;;;56.88;25.58;;;;;;;;;;4981426;28;20488;-67
2022/05/04 00:26:46;;;;;;;55.17;26.30;;;;;;;;;;4977418;28;20037;-67
2022/05/04 00:29:12;;;;;;;71.97;28.85;;;;;;;;;;4978871;28;20076;-67
2022/05/04 00:31:38;;;;;;;72.75;29.40;;;;;;;;;;4986997;28;20035;-67
2022/05/04 00:34:04;;;;;;;69.10;29.90;;;;;;;;;;4979925;28;20034;-67
2022/05/04 00:36:31;;;;;;;84.28;31.17;;;;;;;;;;4979793;28;20389;-67
2022/05/04 00:38:58;;;;;;;77.40;31.25;;;;;;;;;;4987114;28;20035;-67
2022/05/04 00:41:24;;;;;;;76.10;29.25;;;;;;;;;;4974373;28;20075;-67
2022/05/04 00:43:51;;;;;;;82.60;32.30;;;;;;;;;;4990974;28;20106;-67
2022/05/04 00:46:18;;;;;;;85.78;32.35;;;;;;;;;;4981505;28;20099;-67
2022/05/04 00:48:44;;;;;;;87.13;30.77;;;;;;;;;;4985351;28;20069;-67
2022/05/04 00:51:10;;;;;;;129.02;33.17;;;;;;;;;;4981458;28;20080;-67
2022/05/04 00:53:37;;;;;;;77.60;30.10;;;;;;;;;;4975790;28;20041;-67
2022/05/04 00:56:04;;;;;;;75.28;30.40;;;;;;;;;;4983171;28;20108;-67
2022/05/04 01:01:16;;;;;;;78.65;29.55;;;;;;;;;;4987335;28;20058;-67
2022/05/04 01:03:42;;;;;;;107.72;29.92;;;;;;;;;;4977425;28;20119;-67
2022/05/04 01:06:09;;;;;;;132.93;26.58;;;;;;;;;;4979058;28;20039;-67
2022/05/04 01:08:35;;;;;;;204.55;29.52;;;;;;;;;;4978919;28;20043;-67
2022/05/04 01:11:01;;;;;;;174.70;28.55;;;;;;;;;;4986134;28;20127;-67
2022/05/04 01:13:27;;;;;;;79.05;25.58;;;;;;;;;;4981189;28;20034;-67
2022/05/04 01:15:53;;;;;;;118.75;28.08;;;;;;;;;;4970578;28;20377;-67
2022/05/04 01:18:20;;;;;;;165.43;26.35;;;;;;;;;;4979134;28;20029;-67
2022/05/04 01:20:46;;;;;;;176.75;26.27;;;;;;;;;;4984003;28;20131;-67
2022/05/04 01:23:12;;;;;;;160.23;27.75;;;;;;;;;;4974477;28;20463;-67
2022/05/04 01:25:38;;;;;;;67.32;22.02;;;;;;;;;;4986659;28;20034;-67
2022/05/04 01:28:05;;;;;;;143.50;27.60;;;;;;;;;;4978385;28;20522;-67
2022/05/04 01:30:32;;;;;;;80.93;23.02;;;;;;;;;;4979210;28;20026;-67
2022/05/04 01:32:59;;;;;;;185.65;25.65;;;;;;;;;;4976174;28;20027;-67
2022/05/04 01:35:26;;;;;;;92.40;22.75;;;;;;;;;;4985259;28;20049;-67
2022/05/04 01:37:52;;;;;;;166.38;25.42;;;;;;;;;;4976360;28;20057;-67
2022/05/04 01:40:18;;;;;;;99.95;22.50;;;;;;;;;;4979906;28;20081;-67
2022/05/04 01:42:44;;;;;;;99.75;24.92;;;;;;;;;;4982090;28;20026;-67
2022/05/04 01:45:11;;;;;;;69.32;22.95;;;;;;;;;;4981621;28;20049;-67
2022/05/04 01:47:37;;;;;;;79.05;21.70;;;;;;;;;;4973976;28;20010;-67
2022/05/04 01:50:04;;;;;;;77.45;22.30;;;;;;;;;;4982353;28;20068;-67
2022/05/04 01:52:30;;;;;;;69.88;23.63;;;;;;;;;;4980747;28;20018;-67
2022/05/04 01:54:59;;;;;;;54.60;20.85;;;;;;;;;;4989758;28;20079;-67
2022/05/04 01:57:25;;;;;;;52.28;21.52;;;;;;;;;;4973573;28;20030;-67
2022/05/04 01:59:51;;;;;;;60.05;21.55;;;;;;;;;;4984262;28;20031;-67
2022/05/04 02:02:17;;;;;;;64.70;22.55;;;;;;;;;;4978179;28;20027;-67
2022/05/04 02:04:43;;;;;;;69.25;22.80;;;;;;;;;;4981854;28;20514;-67
2022/05/04 02:07:09;;;;;;;98.22;24.25;;;;;;;;;;5024470;28;20070;-67
2022/05/04 02:09:40;;;;;;;91.72;23.70;;;;;;;;;;4972496;28;20053;-67
2022/05/04 02:12:07;;;;;;;82.90;23.23;;;;;;;;;;4977281;28;20026;-67
2022/05/04 02:14:34;;;;;;;81.18;23.15;;;;;;;;;;4978171;28;20484;-67
2022/05/04 02:17:00;;;;;;;71.97;23.25;;;;;;;;;;4984195;28;20027;-67
2022/05/04 02:19:27;;;;;;;76.53;24.67;;;;;;;;;;4987150;28;20030;-67
2022/05/04 02:21:53;;;;;;;91.32;24.92;;;;;;;;;;4979446;28;20035;-67
2022/05/04 02:24:19;;;;;;;148.38;27.17;;;;;;;;;;4977141;28;20091;-67
2022/05/04 02:26:45;;;;;;;236.60;31.20;;;;;;;;;;4978197;28;20123;-67
2022/05/04 02:29:11;;;;;;;148.68;26.95;;;;;;;;;;4985485;28;20057;-68
2022/05/04 02:31:38;;;;;;;129.48;23.55;;;;;;;;;;4986135;28;20034;-67
2022/05/04 02:34:04;;;;;;;129.55;24.75;;;;;;;;;;4976118;28;20026;-67
2022/05/04 02:39:15;;;;;;;211.15;27.48;;;;;;;;;;4985275;28;20041;-67
2022/05/04 02:41:41;;;;;;;123.40;24.80;;;;;;;;;;4985973;28;20037;-67
2022/05/04 02:44:07;;;;;;;177.35;23.55;;;;;;;;;;4987727;28;20396;-67
2022/05/04 02:46:34;;;;;;;88.07;21.88;;;;;;;;;;4979424;28;20126;-67
2022/05/04 02:49:00;;;;;;;134.18;24.80;;;;;;;;;;4981807;28;20555;-67
2022/05/04 02:51:26;;;;;;;130.52;23.48;;;;;;;;;;4972814;28;20027;-67
2022/05/04 02:53:52;;;;;;;119.45;24.30;;;;;;;;;;4987037;28;20038;-67
2022/05/04 02:56:18;;;;;;;137.02;23.63;;;;;;;;;;4983561;28;20027;-67
2022/05/04 02:58:45;;;;;;;86.07;20.20;;;;;;;;;;4983993;28;20026;-67
2022/05/04 03:03:56;;;;;;;69.82;18.33;;;;;;;;;;4976528;28;20079;-67
2022/05/04 03:06:22;;;;;;;90.93;17.45;;;;;;;;;;4980603;28;20023;-67
2022/05/04 03:08:48;;;;;;;73.22;17.08;;;;;;;;;;4981367;28;20055;-67
2022/05/04 03:13:59;;;;;;;43.65;15.35;;;;;;;;;;4973923;28;20560;-67
2022/05/04 03:16:26;;;;;;;44.58;15.20;;;;;;;;;;4981582;28;20034;-67
2022/05/04 03:18:52;;;;;;;43.05;13.88;;;;;;;;;;4984421;28;20492;-67
2022/05/04 03:21:18;;;;;;;48.47;15.05;;;;;;;;;;4992127;28;20027;-67
2022/05/04 03:23:44;;;;;;;45.47;14.55;;;;;;;;;;4976112;28;20033;-67
2022/05/04 03:26:11;;;;;;;57.22;15.32;;;;;;;;;;4986849;28;20027;-67
2022/05/04 03:28:37;;;;;;;33.55;13.68;;;;;;;;;;4975656;28;20576;-67
2022/05/04 03:31:03;;;;;;;46.35;13.60;;;;;;;;;;4992259;28;20027;-67
2022/05/04 03:33:29;;;;;;;75.78;14.80;;;;;;;;;;4990774;28;20030;-67
2022/05/04 03:35:55;;;;;;;61.08;15.35;;;;;;;;;;4974691;28;20026;-67
2022/05/04 03:38:21;;;;;;;35.90;14.93;;;;;;;;;;4990852;28;20037;-67
2022/05/04 03:40:47;;;;;;;48.28;15.73;;;;;;;;;;4981717;28;20027;-67
2022/05/04 03:43:13;;;;;;;64.90;16.30;;;;;;;;;;4986497;28;20031;-67
2022/05/04 03:45:39;;;;;;;43.25;15.48;;;;;;;;;;4990455;28;20083;-67
2022/05/04 03:48:06;;;;;;;47.22;15.70;;;;;;;;;;4977366;28;20100;-67
2022/05/04 03:50:32;;;;;;;35.05;14.23;;;;;;;;;;4978407;28;20054;-67
2022/05/04 03:52:58;;;;;;;45.28;14.30;;;;;;;;;;4978295;28;20121;-67
2022/05/04 03:55:24;;;;;;;34.97;14.07;;;;;;;;;;4986541;28;20503;-67
2022/05/04 03:57:50;;;;;;;43.83;13.73;;;;;;;;;;4975301;28;20484;-67
2022/05/04 04:00:17;;;;;;;29.08;13.35;;;;;;;;;;4988838;28;20015;-67
2022/05/04 04:02:43;;;;;;;41.60;15.35;;;;;;;;;;4982324;28;20503;-67
2022/05/04 04:05:09;;;;;;;52.53;15.85;;;;;;;;;;4989707;28;20027;-67
2022/05/04 04:07:35;;;;;;;93.00;18.75;;;;;;;;;;4975618;28;20035;-67
2022/05/04 04:10:02;;;;;;;50.33;16.23;;;;;;;;;;4990973;28;20065;-67
2022/05/04 04:12:28;;;;;;;92.45;19.67;;;;;;;;;;4984899;28;20084;-67
2022/05/04 04:14:54;;;;;;;88.97;20.30;;;;;;;;;;4982741;28;20023;-67
2022/05/04 04:17:20;;;;;;;77.07;18.80;;;;;;;;;;4984726;28;20035;-67
2022/05/04 04:21:50;;;;;;;74.38;18.90;;;;;;;;;;4974598;28;20520;-67
2022/05/04 04:22:32;;;;;;;85.47;19.95;;;;;;;;;;4984122;28;20034;-67
2022/05/04 04:24:58;;;;;;;126.35;21.17;;;;;;;;;;4982991;28;20105;-67
2022/05/04 04:27:24;;;;;;;119.10;20.70;;;;;;;;;;4977373;28;20106;-67
2022/05/04 04:29:50;;;;;;;62.50;17.23;;;;;;;;;;4976723;28;20031;-68
2022/05/04 04:32:16;;;;;;;79.93;20.15;;;;;;;;;;4977082;28;20039;-67
2022/05/04 04:34:42;;;;;;;161.98;22.58;;;;;;;;;;4988852;28;20015;-67
2022/05/04 04:37:09;;;;;;;106.63;21.10;;;;;;;;;;4979240;28;20038;-67
2022/05/04 04:39:35;;;;;;;91.93;21.27;;;;;;;;;;4986201;28;20614;-67
2022/05/04 04:42:01;;;;;;;121.78;21.73;;;;;;;;;;4985415;28;20038;-67
2022/05/04 04:44:27;;;;;;;73.45;19.85;;;;;;;;;;4978548;28;20497;-67
2022/05/04 04:46:54;;;;;;;82.22;17.70;;;;;;;;;;5024079;28;20038;-67
2022/05/04 04:49:20;;;;;;;126.88;21.60;;;;;;;;;;5005776;28;20093;-68
2022/05/04 04:51:46;;;;;;;60.05;16.20;;;;;;;;;;4987315;28;20066;-67
2022/05/04 04:54:12;;;;;;;97.28;17.00;;;;;;;;;;4977663;28;20045;-67
2022/05/04 04:56:38;;;;;;;118.65;18.55;;;;;;;;;;4972387;28;20034;-67
2022/05/04 04:59:04;;;;;;;113.03;19.42;;;;;;;;;;4980537;28;20030;-67
2022/05/04 05:01:30;;;;;;;110.93;19.83;;;;;;;;;;4979843;28;20049;-68
2022/05/04 05:03:56;;;;;;;76.00;15.75;;;;;;;;;;4973370;28;20366;-67
2022/05/04 05:06:24;;;;;;;160.55;20.35;;;;;;;;;;4985843;28;20489;-68
2022/05/04 05:08:50;;;;;;;103.28;16.15;;;;;;;;;;4981162;28;20111;-67
2022/05/04 05:11:16;;;;;;;168.93;20.08;;;;;;;;;;4995839;28;20038;-68
2022/05/04 05:16:27;;;;;;;122.70;18.60;;;;;;;;;;4976716;28;20384;-67
2022/05/04 05:18:53;;;;;;;107.68;17.63;;;;;;;;;;4974194;28;20034;-67
2022/05/04 05:21:19;;;;;;;265.58;25.73;;;;;;;;;;4975915;28;20023;-68
2022/05/04 05:23:46;;;;;;;115.25;18.63;;;;;;;;;;5034307;28;20078;-67
2022/05/04 05:26:12;;;;;;;176.98;22.92;;;;;;;;;;5009709;28;20033;-68
2022/05/04 05:28:38;;;;;;;190.45;18.63;;;;;;;;;;4973283;28;20405;-68
2022/05/04 05:31:04;;;;;;;106.53;16.15;;;;;;;;;;4972021;28;20046;-68
2022/05/04 05:33:30;;;;;;;146.32;18.40;;;;;;;;;;4979798;28;20054;-68
2022/05/04 05:35:56;;;;;;;72.03;13.82;;;;;;;;;;4980615;28;20118;-68
2022/05/04 05:38:22;;;;;;;128.07;17.85;;;;;;;;;;4978300;28;20388;-68
2022/05/04 05:40:48;;;;;;;124.07;15.50;;;;;;;;;;4987964;28;20729;-68
2022/05/04 05:43:14;;;;;;;119.75;16.90;;;;;;;;;;4979027;28;20038;-67
2022/05/04 05:45:41;;;;;;;117.75;17.23;;;;;;;;;;4973245;28;20116;-67
2022/05/04 05:48:07;;;;;;;125.32;16.15;;;;;;;;;;4972545;28;20034;-67
2022/05/04 05:50:34;;;;;;;156.15;19.50;;;;;;;;;;4984387;28;20106;-68
2022/05/04 05:53:00;;;;;;;148.00;17.88;;;;;;;;;;4978113;28;20037;-67
2022/05/04 05:55:26;;;;;;;100.30;16.20;;;;;;;;;;4975638;28;20061;-67
2022/05/04 05:57:52;;;;;;;174.80;18.73;;;;;;;;;;4975615;28;20106;-67
2022/05/04 06:00:18;;;;;;;129.23;18.02;;;;;;;;;;4973146;28;20030;-67
2022/05/04 06:02:45;;;;;;;78.70;14.80;;;;;;;;;;4976038;28;20037;-67
2022/05/04 06:05:11;;;;;;;138.52;18.58;;;;;;;;;;4979427;28;20143;-67
2022/05/04 06:07:37;;;;;;;64.80;17.25;;;;;;;;;;4975971;28;20023;-67
2022/05/04 06:10:04;;;;;;;75.53;15.57;;;;;;;;;;4974712;28;20034;-67
2022/05/04 06:12:30;;;;;;;64.65;15.55;;;;;;;;;;4971710;28;20042;-67
2022/05/04 06:14:56;;;;;;;64.60;17.10;;;;;;;;;;4969501;28;20054;-67
2022/05/04 06:17:22;;;;;;;89.00;17.05;;;;;;;;;;4975742;28;20048;-67
2022/05/04 06:19:49;;;;;;;46.60;17.30;;;;;;;;;;4974434;28;20065;-67
2022/05/04 06:22:15;;;;;;;86.75;18.45;;;;;;;;;;4972949;28;20030;-67
2022/05/04 06:24:41;;;;;;;70.68;16.75;;;;;;;;;;4984307;28;20080;-67
2022/05/04 06:27:07;;;;;;;58.53;17.77;;;;;;;;;;4971257;28;20027;-70
2022/05/04 06:35:04;;;;;;;54.42;18.88;;;;;;;;;;4972839;28;20122;-68
2022/05/04 06:37:31;;;;;;;50.83;19.58;;;;;;;;;;4978682;28;20046;-67
2022/05/04 06:39:57;;;;;;;52.47;18.75;;;;;;;;;;5005064;28;20024;-67
2022/05/04 06:42:23;;;;;;;53.30;18.23;;;;;;;;;;4990125;28;20015;-68
2022/05/04 06:44:49;;;;;;;57.17;19.75;;;;;;;;;;4986419;28;20019;-67
2022/05/04 06:47:15;;;;;;;52.05;20.23;;;;;;;;;;4976773;28;20049;-68
2022/05/04 06:49:43;;;;;;;57.38;20.17;;;;;;;;;;4982315;28;20041;-66
2022/05/04 06:52:09;;;;;;;58.63;19.55;;;;;;;;;;4976887;28;20023;-65
2022/05/04 06:54:37;;;;;;;52.10;20.38;;;;;;;;;;4979286;28;20034;-65
2022/05/04 06:57:03;;;;;;;57.53;21.05;;;;;;;;;;4986405;28;20132;-65
2022/05/04 06:59:30;;;;;;;60.67;20.95;;;;;;;;;;4975854;28;20109;-65
2022/05/04 07:01:56;;;;;;;58.28;21.92;;;;;;;;;;4975245;28;20038;-65
2022/05/04 07:04:23;;;;;;;65.20;21.80;;;;;;;;;;4990612;28;20018;-65
2022/05/04 07:06:49;;;;;;;63.78;21.58;;;;;;;;;;4978476;28;20039;-65
2022/05/04 07:09:15;;;;;;;67.45;22.95;;;;;;;;;;4980435;28;20061;-65
2022/05/04 07:11:42;;;;;;;65.25;24.45;;;;;;;;;;4970696;28;20293;-66
2022/05/04 07:14:08;;;;;;;65.45;23.05;;;;;;;;;;4979547;28;20125;-66
2022/05/04 07:16:34;;;;;;;62.17;24.63;;;;;;;;;;4982458;28;20404;-66
2022/05/04 07:19:00;;;;;;;69.50;25.65;;;;;;;;;;4983805;28;20018;-65
2022/05/04 07:21:26;;;;;;;72.28;25.13;;;;;;;;;;4977348;28;20113;-65
2022/05/04 07:23:52;;;;;;;68.97;24.30;;;;;;;;;;4976307;28;20027;-66
2022/05/04 07:26:18;;;;;;;63.72;25.67;;;;;;;;;;4980115;28;20036;-66
2022/05/04 07:28:45;;;;;;;65.18;27.10;;;;;;;;;;4969489;28;20026;-65
2022/05/04 07:31:11;;;;;;;66.47;25.73;;;;;;;;;;4969419;28;20031;-65
2022/05/04 07:33:37;;;;;;;64.70;25.63;;;;;;;;;;4972926;28;20070;-66
2022/05/04 07:36:03;;;;;;;60.80;24.27;;;;;;;;;;4967174;28;20027;-65
2022/05/04 07:38:29;;;;;;;66.18;27.65;;;;;;;;;;4969300;28;20439;-65
2022/05/04 07:43:40;;;;;;;62.97;27.25;;;;;;;;;;4988259;28;20133;-65
2022/05/04 07:46:06;;;;;;;65.22;27.83;;;;;;;;;;4977453;28;20427;-65
2022/05/04 07:48:32;;;;;;;68.28;26.52;;;;;;;;;;4988496;28;20049;-65
2022/05/04 07:50:59;;;;;;;66.60;27.13;;;;;;;;;;4980449;28;20039;-65
2022/05/04 07:53:25;;;;;;;76.75;28.42;;;;;;;;;;4979681;28;20044;-65
2022/05/04 07:55:51;;;;;;;65.88;26.50;;;;;;;;;;4988292;28;20031;-65
2022/05/04 07:58:17;;;;;;;69.97;26.92;;;;;;;;;;4974541;28;20027;-65
2022/05/04 08:06:13;;;;;;;72.82;27.17;;;;;;;;;;4979375;28;20041;-64
2022/05/04 08:08:39;;;;;;;72.32;27.40;;;;;;;;;;4980392;28;20056;-64
2022/05/04 08:11:05;;;;;;;77.20;28.98;;;;;;;;;;4971100;28;20076;-64
2022/05/04 08:13:32;;;;;;;76.95;30.30;;;;;;;;;;4978431;28;20041;-65
2022/05/04 08:15:58;;;;;;;79.43;29.80;;;;;;;;;;4982012;28;20494;-64
2022/05/04 08:18:25;;;;;;;77.28;31.33;;;;;;;;;;4974497;28;20034;-65
2022/05/04 08:20:51;;;;;;;79.05;29.80;;;;;;;;;;4978490;28;20061;-64
2022/05/04 08:23:18;;;;;;;78.22;28.08;;;;;;;;;;4975862;28;20027;-64
2022/05/04 08:25:45;;;;;;;70.72;27.85;;;;;;;;;;4978335;28;20038;-65
2022/05/04 08:28:13;;;;;;;73.60;27.90;;;;;;;;;;4975551;28;20034;-65
2022/05/04 08:30:39;;;;;;;63.30;27.00;;;;;;;;;;4991240;28;20488;-65
2022/05/04 08:33:06;;;;;;;67.53;29.58;;;;;;;;;;4976383;28;20105;-64
2022/05/04 08:35:32;;;;;;;70.00;28.02;;;;;;;;;;4982507;28;20034;-65
2022/05/04 08:37:59;;;;;;;65.75;28.95;;;;;;;;;;4983196;28;20026;-65
2022/05/04 08:40:25;;;;;;;63.97;27.30;;;;;;;;;;4980740;28;20080;-65
2022/05/04 08:42:52;;;;;;;62.60;26.45;;;;;;;;;;4984844;28;20058;-64
2022/05/04 08:45:18;;;;;;;62.40;26.00;;;;;;;;;;4980159;28;20038;-65
2022/05/04 08:47:45;;;;;;;61.45;25.95;;;;;;;;;;4979821;28;20559;-65
2022/05/04 08:50:15;;;;;;;64.20;27.95;;;;;;;;;;4983337;28;20065;-65
2022/05/04 08:52:44;;;;;;;64.75;25.25;;;;;;;;;;4980055;28;20042;-65
2022/05/04 08:55:10;;;;;;;54.70;24.45;;;;;;;;;;4975901;28;20026;-65
2022/05/04 08:57:38;;;;;;;58.10;26.45;;;;;;;;;;4980116;28;20035;-65
2022/05/04 09:00:04;;;;;;;53.40;22.80;;;;;;;;;;4982123;28;20112;-65
2022/05/04 09:02:31;;;;;;;44.42;21.42;;;;;;;;;;4983043;28;20531;-65
2022/05/04 09:05:10;;;;;;;49.45;20.70;;;;;;;;;;4980743;28;20011;-65
2022/05/04 09:07:39;;;;;;;48.90;21.90;;;;;;;;;;4981378;28;20073;-65
2022/05/04 09:10:06;;;;;;;48.85;21.95;;;;;;;;;;4981156;28;20038;-65
2022/05/04 09:12:33;;;;;;;46.33;20.40;;;;;;;;;;4982358;28;20034;-65
2022/05/04 09:14:59;;;;;;;41.70;20.63;;;;;;;;;;4985110;28;20067;-65
2022/05/04 09:17:25;;;;;;;50.25;22.63;;;;;;;;;;4971643;28;20793;-65
2022/05/04 09:22:40;;;;;;;44.83;21.33;;;;;;;;;;4983220;28;20091;-65
2022/05/04 09:25:16;;;;;;;45.17;20.60;;;;;;;;;;4980641;28;20019;-65
2022/05/04 09:27:42;;;;;;;41.10;18.80;;;;;;;;;;4978964;28;20366;-65
2022/05/04 09:30:09;;;;;;;34.67;18.15;;;;;;;;;;5006855;28;20031;-65
2022/05/04 09:32:38;;;;;;;33.13;17.13;;;;;;;;;;4979064;28;20435;-65
2022/05/04 09:35:05;;;;;;;34.83;18.95;;;;;;;;;;4986795;28;20104;-65
2022/05/04 09:45:53;;;;;;;32.55;16.15;;;;;;;;;;4977080;28;20030;-65
2022/05/04 09:48:29;;;;;;;29.60;15.77;;;;;;;;;;4978446;28;20557;-65
2022/05/04 09:50:57;;;;;;;33.08;17.23;;;;;;;;;;4981379;28;20053;-65
2022/05/04 09:53:27;;;;;;;35.42;19.15;;;;;;;;;;4979311;28;20018;-65
2022/05/04 09:55:55;;;;;;;35.13;18.50;;;;;;;;;;4974034;28;20039;-65
2022/05/04 09:58:23;;;;;;;25.67;13.35;;;;;;;;;;4973210;28;20179;-65
2022/05/04 10:00:51;;;;;;;30.83;14.75;;;;;;;;;;4986617;28;20030;-65
2022/05/04 10:03:18;;;;;;;29.83;15.30;;;;;;;;;;4983360;28;20030;-65
2022/05/04 10:05:46;;;;;;;27.17;14.43;;;;;;;;;;4984043;28;20480;-65
2022/05/04 10:08:12;;;;;;;35.33;18.20;;;;;;;;;;4977529;28;20064;-65
2022/05/04 10:10:38;;;;;;;29.17;14.25;;;;;;;;;;4976753;28;20038;-64
2022/05/04 10:13:04;;;;;;;26.90;14.02;;;;;;;;;;4979347;28;20559;-65
2022/05/04 10:15:31;;;;;;;23.42;10.90;;;;;;;;;;4974941;28;20487;-65
2022/05/04 10:18:07;;;;;;;14.40;8.82;;;;;;;;;;4981759;28;20102;-65
2022/05/04 10:20:42;;;;;;;19.67;8.80;;;;;;;;;;4977576;28;20434;-65
2022/05/04 10:23:18;;;;;;;15.75;8.02;;;;;;;;;;4982169;28;20027;-65
2022/05/04 10:25:44;;;;;;;14.15;7.88;;;;;;;;;;4973238;28;20035;-65
2022/05/04 10:28:14;;;;;;;12.98;7.75;;;;;;;;;;4984283;28;20038;-65
2022/05/04 10:31:06;;;;;;;11.55;7.20;;;;;;;;;;4980979;28;20038;-65
2022/05/04 10:33:33;;;;;;;13.30;7.65;;;;;;;;;;4985947;28;20047;-65
2022/05/04 10:36:15;;;;;;;12.00;7.60;;;;;;;;;;4972530;28;20034;-65
2022/05/04 10:38:44;;;;;;;13.02;7.45;;;;;;;;;;4974632;28;20259;-65
2022/05/04 10:41:12;;;;;;;13.52;7.18;;;;;;;;;;4970346;28;20256;-65
2022/05/04 10:43:43;;;;;;;14.35;6.45;;;;;;;;;;4971106;28;20042;-65
2022/05/04 10:46:13;;;;;;;9.30;5.78;;;;;;;;;;4972180;28;20035;-65
2022/05/04 10:48:43;;;;;;;8.63;5.75;;;;;;;;;;4978137;28;20026;-65
2022/05/04 10:51:18;;;;;;;7.60;5.10;;;;;;;;;;4971417;28;20419;-65
2022/05/04 10:53:49;;;;;;;9.50;5.43;;;;;;;;;;4973861;28;20084;-65
2022/05/04 10:56:16;;;;;;;6.85;4.75;;;;;;;;;;4978457;28;20030;-65
2022/05/04 10:58:44;;;;;;;7.10;5.13;;;;;;;;;;4980963;28;20096;-65
2022/05/04 11:01:12;;;;;;;7.88;4.38;;;;;;;;;;4975140;28;20109;-65
2022/05/04 11:03:49;;;;;;;5.80;3.90;;;;;;;;;;4977000;28;20034;-65
2022/05/04 11:06:33;;;;;;;7.00;4.20;;;;;;;;;;4972897;28;20049;-65
2022/05/04 11:09:04;;;;;;;9.30;5.45;;;;;;;;;;4976854;28;20138;-65
2022/05/04 11:11:31;;;;;;;5.40;3.60;;;;;;;;;;4971444;28;20034;-65
2022/05/04 11:13:57;;;;;;;5.32;3.78;;;;;;;;;;4976670;28;20022;-65
2022/05/04 11:16:24;;;;;;;4.10;2.95;;;;;;;;;;4973593;28;20041;-65
2022/05/04 11:18:50;;;;;;;5.90;3.10;;;;;;;;;;4971056;28;20031;-65
2022/05/04 11:21:17;;;;;;;7.50;3.15;;;;;;;;;;4975707;28;20392;-65
2022/05/04 11:23:50;;;;;;;4.63;3.10;;;;;;;;;;4978963;28;20037;-65
2022/05/04 11:26:18;;;;;;;3.50;2.65;;;;;;;;;;4976245;28;20106;-65
2022/05/04 11:28:44;;;;;;;5.88;3.67;;;;;;;;;;4981596;28;20461;-65
2022/05/04 11:31:11;;;;;;;4.53;2.72;;;;;;;;;;4982404;28;20183;-65
2022/05/04 11:33:37;;;;;;;6.63;3.05;;;;;;;;;;4978260;28;20030;-70
2022/05/04 11:36:03;;;;;;;5.03;2.88;;;;;;;;;;4972440;28;20029;-65
2022/05/04 11:38:29;;;;;;;4.00;2.75;;;;;;;;;;4987596;28;20105;-66
2022/05/04 11:40:55;;;;;;;5.05;2.90;;;;;;;;;;4974641;28;20113;-65
2022/05/04 11:43:29;;;;;;;3.67;2.42;;;;;;;;;;4972775;28;20556;-65
2022/05/04 11:45:56;;;;;;;3.42;2.10;;;;;;;;;;4973197;28;20035;-65
2022/05/04 11:48:22;;;;;;;3.53;2.53;;;;;;;;;;4979436;28;20488;-65
2022/05/04 11:50:52;;;;;;;3.83;2.40;;;;;;;;;;4974697;28;20477;-65
2022/05/04 11:53:18;;;;;;;2.80;2.03;;;;;;;;;;4975753;28;20061;-65
2022/05/04 11:55:44;;;;;;;2.90;2.20;;;;;;;;;;4973491;28;20035;-65
2022/05/04 11:58:11;;;;;;;3.92;2.17;;;;;;;;;;4977755;28;20031;-65
2022/05/04 12:00:41;;;;;;;2.78;1.95;;;;;;;;;;4975253;28;20049;-65
2022/05/04 12:03:08;;;;;;;5.40;2.78;;;;;;;;;;4975988;28;20065;-65
2022/05/04 12:05:34;;;;;;;3.92;2.80;;;;;;;;;;4980790;28;20026;-66
2022/05/04 12:08:01;;;;;;;4.53;2.72;;;;;;;;;;4979163;28;20492;-66
2022/05/04 12:10:28;;;;;;;4.78;2.30;;;;;;;;;;4986408;28;20079;-65
2022/05/04 12:12:54;;;;;;;4.22;2.10;;;;;;;;;;4984728;28;20396;-65
2022/05/04 12:15:23;;;;;;;6.20;2.88;;;;;;;;;;4990069;28;20037;-65
2022/05/04 12:17:50;;;;;;;2.85;2.10;;;;;;;;;;4984872;28;20027;-65
2022/05/04 12:20:19;;;;;;;4.82;2.78;;;;;;;;;;4983393;28;20420;-65
2022/05/04 12:22:46;;;;;;;4.65;2.63;;;;;;;;;;4984348;28;20033;-65
2022/05/04 12:25:12;;;;;;;3.50;1.90;;;;;;;;;;4986770;28;20045;-65
2022/05/04 12:27:38;;;;;;;3.72;2.22;;;;;;;;;;4983648;28;20034;-65
2022/05/04 12:33:08;;;;;;;3.15;2.30;;;;;;;;;;4984939;28;20052;-65
2022/05/04 12:35:37;;;;;;;4.07;2.40;;;;;;;;;;4980927;28;20038;-65
2022/05/04 12:38:04;;;;;;;3.72;2.10;;;;;;;;;;4981764;28;20034;-65
2022/05/04 12:40:31;;;;;;;2.88;2.08;;;;;;;;;;4983782;28;20105;-65
2022/05/04 12:43:01;;;;;;;3.17;1.88;;;;;;;;;;4986711;28;20597;-65
2022/05/04 12:45:28;;;;;;;3.45;2.20;;;;;;;;;;4982234;28;20023;-65
2022/05/04 12:47:55;;;;;;;2.65;2.00;;;;;;;;;;4982143;28;20404;-65
2022/05/04 12:50:25;;;;;;;3.22;2.30;;;;;;;;;;4983697;28;20027;-65
2022/05/04 12:52:51;;;;;;;2.78;1.83;;;;;;;;;;4976222;28;20524;-65
2022/05/04 12:55:18;;;;;;;3.65;2.10;;;;;;;;;;4980367;28;20049;-65
2022/05/04 12:57:44;;;;;;;3.30;1.88;;;;;;;;;;4982880;28;20058;-65
2022/05/04 13:00:12;;;;;;;2.95;2.00;;;;;;;;;;4986728;28;20042;-65
2022/05/04 13:02:42;;;;;;;2.50;2.17;;;;;;;;;;4982657;28;20426;-65
2022/05/04 13:05:11;;;;;;;2.45;1.70;;;;;;;;;;4979483;28;20058;-65
2022/05/04 13:07:37;;;;;;;2.58;1.48;;;;;;;;;;4982469;28;20406;-65
2022/05/04 13:10:05;;;;;;;3.38;2.15;;;;;;;;;;4988266;28;20510;-65
2022/05/04 13:12:31;;;;;;;3.05;1.88;;;;;;;;;;4986620;28;20023;-65
2022/05/04 13:14:57;;;;;;;2.13;1.70;;;;;;;;;;4985736;28;20045;-66
2022/05/04 13:17:23;;;;;;;6.25;2.38;;;;;;;;;;4987279;28;20026;-65
2022/05/04 13:19:50;;;;;;;4.38;1.60;;;;;;;;;;4981917;28;20031;-65
2022/05/04 13:22:16;;;;;;;1.92;1.50;;;;;;;;;;4981419;28;20109;-65
2022/05/04 13:24:42;;;;;;;1.40;1.30;;;;;;;;;;4985245;28;20062;-65
2022/05/04 13:27:09;;;;;;;4.32;1.92;;;;;;;;;;4984910;28;20906;-65
2022/05/04 13:29:35;;;;;;;3.85;1.60;;;;;;;;;;4984661;28;20403;-66
2022/05/04 13:32:03;;;;;;;2.33;1.52;;;;;;;;;;4985048;28;20391;-65
2022/05/04 13:34:29;;;;;;;1.60;1.40;;;;;;;;;;4987472;28;20030;-65
2022/05/04 13:36:55;;;;;;;1.50;1.17;;;;;;;;;;4981509;28;20030;-65
2022/05/04 13:39:22;;;;;;;4.63;1.10;;;;;;;;;;4983441;28;20618;-65
2022/05/04 13:41:48;;;;;;;1.00;0.90;;;;;;;;;;4987064;28;20105;-65
2022/05/04 13:44:14;;;;;;;0.98;0.82;;;;;;;;;;4985607;28;20063;-65
2022/05/04 13:46:40;;;;;;;2.75;1.33;;;;;;;;;;4986255;28;20026;-65
2022/05/04 13:49:06;;;;;;;1.30;1.15;;;;;;;;;;4982731;28;20042;-65
2022/05/04 13:54:17;;;;;;;1.10;1.00;;;;;;;;;;4977006;28;20500;-65
2022/05/04 13:56:43;;;;;;;1.73;0.90;;;;;;;;;;4983689;28;20026;-65
2022/05/04 13:59:10;;;;;;;1.83;0.65;;;;;;;;;;4982960;28;20508;-65
2022/05/04 14:01:37;;;;;;;0.98;0.85;;;;;;;;;;4987183;28;20014;-65
2022/05/04 14:04:03;;;;;;;1.27;0.70;;;;;;;;;;4988677;28;20117;-65
2022/05/04 14:06:29;;;;;;;1.02;0.90;;;;;;;;;;4984754;28;20071;-65
2022/05/04 14:08:55;;;;;;;1.17;0.82;;;;;;;;;;4987171;28;20103;-65
2022/05/04 14:11:22;;;;;;;0.80;0.73;;;;;;;;;;4987845;28;20030;-65
2022/05/04 14:13:50;;;;;;;2.47;1.05;;;;;;;;;;4988783;28;20027;-65
2022/05/04 14:16:16;;;;;;;3.60;0.80;;;;;;;;;;4986229;28;20074;-65
2022/05/04 14:18:42;;;;;;;1.15;1.05;;;;;;;;;;4987026;28;20026;-65
2022/05/04 14:21:09;;;;;;;2.20;0.90;;;;;;;;;;4985565;28;20026;-65
2022/05/04 14:23:35;;;;;;;1.27;1.00;;;;;;;;;;4986226;28;20057;-66
2022/05/04 14:26:01;;;;;;;1.15;0.82;;;;;;;;;;4985529;28;20026;-65
2022/05/04 14:28:28;;;;;;;0.80;0.77;;;;;;;;;;4985941;28;20033;-66
2022/05/04 14:30:59;;;;;;;2.10;0.80;;;;;;;;;;4986059;28;20026;-66
2022/05/04 14:33:26;;;;;;;1.42;1.33;;;;;;;;;;4984379;28;20042;-66
2022/05/04 14:35:54;;;;;;;1.20;1.10;;;;;;;;;;4987323;28;20045;-65
2022/05/04 14:38:20;;;;;;;1.45;0.80;;;;;;;;;;4987636;28;20023;-65
2022/05/04 14:40:46;;;;;;;1.00;0.90;;;;;;;;;;4984473;28;20105;-65
2022/05/04 14:43:12;;;;;;;0.80;0.80;;;;;;;;;;4984675;28;20022;-66
2022/05/04 14:45:38;;;;;;;2.13;0.90;;;;;;;;;;4984672;28;20098;-66
2022/05/04 14:48:05;;;;;;;0.88;0.77;;;;;;;;;;4986849;28;20040;-64
2022/05/04 14:50:31;;;;;;;2.40;1.23;;;;;;;;;;4987332;28;20014;-63
2022/05/04 14:52:58;;;;;;;1.58;1.30;;;;;;;;;;4990648;28;20033;-63
2022/05/04 14:55:24;;;;;;;1.08;0.98;;;;;;;;;;4987088;28;20023;-64
2022/05/04 14:57:50;;;;;;;1.88;1.17;;;;;;;;;;4986156;28;20041;-63
2022/05/04 15:00:16;;;;;;;2.20;1.25;;;;;;;;;;4989441;28;20076;-63
2022/05/04 15:05:28;;;;;;;1.33;1.23;;;;;;;;;;4987653;28;20035;-63
2022/05/04 15:07:55;;;;;;;1.52;1.10;;;;;;;;;;4989270;28;20089;-63
2022/05/04 15:10:21;;;;;;;5.07;1.10;;;;;;;;;;4989563;28;20030;-63